RCSM weather

Riyuetan (Sun Moon Lake) Heliport
Riyuetan, Nantou County, Taiwan

Public forecast

Using degrees Celsius for public forecast. Weather courtesy of forecast.io.

METAR (pilot weather report)

Closest report is Taichung Ching Chuang Kang Airport, 28.8 nm (53.3 km) NW. Retrieved 2019/05/26 10:30 UTC (17 minutes ago):

RCMQ 261030Z 36004KT 9999 FEW012 SCT060 BKN120 27/24 Q1009 NOSIG RMK A2980

TAF (pilot weather forecast)

Closest forecast is Taichung Ching Chuang Kang Airport, 28.8 nm (53.3 km) NW. Retrieved 2019/05/26 06:21 UTC (4 hours ago):

TAF RCMQ 260500Z 2606/2706 33006KT 9999 FEW010 SCT060 BKN100 TX29/2606Z TN23/2621Z BECMG 2610/2613 33004KT BECMG 2616/2619 5000 BR FEW010 BKN040 BECMG 2623/2702 33006KT 9999 FEW010 SCT040 BKN060 BECMG 2703/2705 18006KT